sensor_id;sensor_type;location;lat;lon;timestamp;temperature;humidity
82001;SHT30;71522;50.870;3.524;2023-09-19T00:00:20;14.71;75.75
82001;SHT30;71522;50.870;3.524;2023-09-19T00:02:57;14.68;75.69
82001;SHT30;71522;50.870;3.524;2023-09-19T00:05:28;14.67;75.03
82001;SHT30;71522;50.870;3.524;2023-09-19T00:07:57;14.57;75.47
82001;SHT30;71522;50.870;3.524;2023-09-19T00:10:28;14.54;75.65
82001;SHT30;71522;50.870;3.524;2023-09-19T00:12:57;14.56;75.17
82001;SHT30;71522;50.870;3.524;2023-09-19T00:15:37;14.61;75.09
82001;SHT30;71522;50.870;3.524;2023-09-19T00:18:03;14.65;75.41
82001;SHT30;71522;50.870;3.524;2023-09-19T00:20:31;14.64;75.57
82001;SHT30;71522;50.870;3.524;2023-09-19T00:22:57;14.63;75.30
82001;SHT30;71522;50.870;3.524;2023-09-19T00:25:30;14.67;75.68
82001;SHT30;71522;50.870;3.524;2023-09-19T00:27:57;14.68;75.47
82001;SHT30;71522;50.870;3.524;2023-09-19T00:30:24;14.73;75.19
82001;SHT30;71522;50.870;3.524;2023-09-19T00:32:51;14.75;75.60
82001;SHT30;71522;50.870;3.524;2023-09-19T00:35:22;14.85;76.06
82001;SHT30;71522;50.870;3.524;2023-09-19T00:37:52;14.89;76.20
82001;SHT30;71522;50.870;3.524;2023-09-19T00:40:21;15.03;75.82
82001;SHT30;71522;50.870;3.524;2023-09-19T00:42:48;15.09;75.52
82001;SHT30;71522;50.870;3.524;2023-09-19T00:45:17;15.12;75.92
82001;SHT30;71522;50.870;3.524;2023-09-19T00:47:46;15.13;75.82
82001;SHT30;71522;50.870;3.524;2023-09-19T00:50:17;15.21;75.60
82001;SHT30;71522;50.870;3.524;2023-09-19T00:52:48;15.28;75.52
82001;SHT30;71522;50.870;3.524;2023-09-19T00:55:16;15.26;75.32
82001;SHT30;71522;50.870;3.524;2023-09-19T00:57:45;15.26;75.75
82001;SHT30;71522;50.870;3.524;2023-09-19T01:00:15;15.22;74.86
82001;SHT30;71522;50.870;3.524;2023-09-19T01:02:44;15.21;74.98
82001;SHT30;71522;50.870;3.524;2023-09-19T01:05:11;15.13;75.70
82001;SHT30;71522;50.870;3.524;2023-09-19T01:07:38;15.13;75.52
82001;SHT30;71522;50.870;3.524;2023-09-19T01:10:27;15.16;75.85
82001;SHT30;71522;50.870;3.524;2023-09-19T01:13:09;15.15;75.72
82001;SHT30;71522;50.870;3.524;2023-09-19T01:21:58;15.32;75.44
82001;SHT30;71522;50.870;3.524;2023-09-19T01:30:43;15.52;74.47
82001;SHT30;71522;50.870;3.524;2023-09-19T01:33:10;15.54;74.30
82001;SHT30;71522;50.870;3.524;2023-09-19T01:35:39;15.52;74.56
82001;SHT30;71522;50.870;3.524;2023-09-19T01:38:06;15.53;74.96
82001;SHT30;71522;50.870;3.524;2023-09-19T01:40:42;15.50;74.21
82001;SHT30;71522;50.870;3.524;2023-09-19T01:43:21;15.50;73.49
82001;SHT30;71522;50.870;3.524;2023-09-19T01:46:08;15.52;74.13
82001;SHT30;71522;50.870;3.524;2023-09-19T01:48:43;15.56;73.56
82001;SHT30;71522;50.870;3.524;2023-09-19T01:51:25;15.56;73.88
82001;SHT30;71522;50.870;3.524;2023-09-19T01:54:09;15.56;74.48
82001;SHT30;71522;50.870;3.524;2023-09-19T01:56:51;15.60;73.77
82001;SHT30;71522;50.870;3.524;2023-09-19T01:59:28;15.57;73.66
82001;SHT30;71522;50.870;3.524;2023-09-19T02:02:00;15.54;74.43
82001;SHT30;71522;50.870;3.524;2023-09-19T02:04:27;15.52;74.17
82001;SHT30;71522;50.870;3.524;2023-09-19T02:06:53;15.42;74.41
82001;SHT30;71522;50.870;3.524;2023-09-19T02:09:20;15.38;75.14
82001;SHT30;71522;50.870;3.524;2023-09-19T02:11:48;15.32;75.37
82001;SHT30;71522;50.870;3.524;2023-09-19T02:14:26;15.31;76.06
82001;SHT30;71522;50.870;3.524;2023-09-19T02:16:57;15.33;76.37
82001;SHT30;71522;50.870;3.524;2023-09-19T02:19:26;15.33;76.31
82001;SHT30;71522;50.870;3.524;2023-09-19T02:21:54;15.40;76.28
82001;SHT30;71522;50.870;3.524;2023-09-19T02:24:20;15.40;76.79
82001;SHT30;71522;50.870;3.524;2023-09-19T02:26:55;15.39;76.77
82001;SHT30;71522;50.870;3.524;2023-09-19T02:29:29;15.36;77.36
82001;SHT30;71522;50.870;3.524;2023-09-19T02:31:58;15.33;77.85
82001;SHT30;71522;50.870;3.524;2023-09-19T02:34:29;15.31;78.17
82001;SHT30;71522;50.870;3.524;2023-09-19T02:36:55;15.31;78.33
82001;SHT30;71522;50.870;3.524;2023-09-19T02:39:21;15.26;78.55
82001;SHT30;71522;50.870;3.524;2023-09-19T02:41:49;15.26;78.74
82001;SHT30;71522;50.870;3.524;2023-09-19T02:44:24;15.21;78.78
82001;SHT30;71522;50.870;3.524;2023-09-19T02:46:53;15.21;78.80
82001;SHT30;71522;50.870;3.524;2023-09-19T02:49:19;15.25;78.50
82001;SHT30;71522;50.870;3.524;2023-09-19T02:51:48;15.25;78.45
82001;SHT30;71522;50.870;3.524;2023-09-19T02:54:14;15.28;78.13
82001;SHT30;71522;50.870;3.524;2023-09-19T02:56:49;15.31;77.61
82001;SHT30;71522;50.870;3.524;2023-09-19T02:59:30;15.35;78.26
82001;SHT30;71522;50.870;3.524;2023-09-19T03:01:57;15.39;77.73
82001;SHT30;71522;50.870;3.524;2023-09-19T03:04:26;15.40;77.59
82001;SHT30;71522;50.870;3.524;2023-09-19T03:06:59;15.38;77.88
82001;SHT30;71522;50.870;3.524;2023-09-19T03:09:26;15.32;78.03
82001;SHT30;71522;50.870;3.524;2023-09-19T03:11:55;15.26;78.23
82001;SHT30;71522;50.870;3.524;2023-09-19T03:14:27;15.16;78.44
82001;SHT30;71522;50.870;3.524;2023-09-19T03:16:56;15.09;78.46
82001;SHT30;71522;50.870;3.524;2023-09-19T03:19:24;15.01;78.71
82001;SHT30;71522;50.870;3.524;2023-09-19T03:21:54;14.88;79.06
82001;SHT30;71522;50.870;3.524;2023-09-19T03:24:22;14.85;79.21
82001;SHT30;71522;50.870;3.524;2023-09-19T03:26:54;14.84;79.14
82001;SHT30;71522;50.870;3.524;2023-09-19T03:29:26;14.80;79.23
82001;SHT30;71522;50.870;3.524;2023-09-19T03:31:52;14.74;79.56
82001;SHT30;71522;50.870;3.524;2023-09-19T03:34:27;14.77;79.65
82001;SHT30;71522;50.870;3.524;2023-09-19T03:36:53;14.75;79.54
82001;SHT30;71522;50.870;3.524;2023-09-19T03:39:24;14.77;79.44
82001;SHT30;71522;50.870;3.524;2023-09-19T03:41:50;14.82;79.38
82001;SHT30;71522;50.870;3.524;2023-09-19T03:44:16;14.75;79.46
82001;SHT30;71522;50.870;3.524;2023-09-19T03:46:42;14.70;79.74
82001;SHT30;71522;50.870;3.524;2023-09-19T03:49:08;14.63;79.95
82001;SHT30;71522;50.870;3.524;2023-09-19T03:51:34;14.59;80.41
82001;SHT30;71522;50.870;3.524;2023-09-19T03:54:00;14.51;80.43
82001;SHT30;71522;50.870;3.524;2023-09-19T03:56:26;14.44;80.88
82001;SHT30;71522;50.870;3.524;2023-09-19T03:58:54;14.44;80.93
82001;SHT30;71522;50.870;3.524;2023-09-19T04:01:20;14.45;80.85
82001;SHT30;71522;50.870;3.524;2023-09-19T04:03:54;14.45;80.90
82001;SHT30;71522;50.870;3.524;2023-09-19T04:06:22;14.40;81.12
82001;SHT30;71522;50.870;3.524;2023-09-19T04:08:54;14.36;81.41
82001;SHT30;71522;50.870;3.524;2023-09-19T04:11:20;14.32;81.57
82001;SHT30;71522;50.870;3.524;2023-09-19T04:13:50;14.27;81.76
82001;SHT30;71522;50.870;3.524;2023-09-19T04:16:16;14.24;81.89
82001;SHT30;71522;50.870;3.524;2023-09-19T04:18:45;14.22;82.13
82001;SHT30;71522;50.870;3.524;2023-09-19T04:21:40;14.22;82.19
82001;SHT30;71522;50.870;3.524;2023-09-19T04:24:06;14.22;82.21
82001;SHT30;71522;50.870;3.524;2023-09-19T04:26:35;14.23;82.28
82001;SHT30;71522;50.870;3.524;2023-09-19T04:29:02;14.19;82.56
82001;SHT30;71522;50.870;3.524;2023-09-19T04:31:30;14.23;82.45
82001;SHT30;71522;50.870;3.524;2023-09-19T04:34:06;14.26;82.37
82001;SHT30;71522;50.870;3.524;2023-09-19T04:36:36;14.26;82.32
82001;SHT30;71522;50.870;3.524;2023-09-19T04:39:15;14.32;82.39
82001;SHT30;71522;50.870;3.524;2023-09-19T04:41:44;14.36;82.49
82001;SHT30;71522;50.870;3.524;2023-09-19T04:44:13;14.40;82.30
82001;SHT30;71522;50.870;3.524;2023-09-19T04:46:44;14.47;82.20
82001;SHT30;71522;50.870;3.524;2023-09-19T04:49:13;14.47;81.87
82001;SHT30;71522;50.870;3.524;2023-09-19T04:51:42;14.53;81.60
82001;SHT30;71522;50.870;3.524;2023-09-19T04:54:18;14.53;81.70
82001;SHT30;71522;50.870;3.524;2023-09-19T04:56:49;14.48;81.87
82001;SHT30;71522;50.870;3.524;2023-09-19T04:59:17;14.48;81.88
82001;SHT30;71522;50.870;3.524;2023-09-19T05:01:55;14.45;81.83
82001;SHT30;71522;50.870;3.524;2023-09-19T05:04:25;14.38;82.12
82001;SHT30;71522;50.870;3.524;2023-09-19T05:06:53;14.40;82.10
82001;SHT30;71522;50.870;3.524;2023-09-19T05:09:19;14.44;82.05
82001;SHT30;71522;50.870;3.524;2023-09-19T05:11:45;14.44;81.93
82001;SHT30;71522;50.870;3.524;2023-09-19T05:14:11;14.43;81.92
82001;SHT30;71522;50.870;3.524;2023-09-19T05:16:43;14.43;82.02
82001;SHT30;71522;50.870;3.524;2023-09-19T05:19:09;14.38;82.07
82001;SHT30;71522;50.870;3.524;2023-09-19T05:21:37;14.38;82.16
82001;SHT30;71522;50.870;3.524;2023-09-19T05:24:05;14.33;82.41
82001;SHT30;71522;50.870;3.524;2023-09-19T05:26:34;14.38;82.33
82001;SHT30;71522;50.870;3.524;2023-09-19T05:29:02;14.40;82.10
82001;SHT30;71522;50.870;3.524;2023-09-19T05:31:30;14.47;82.16
82001;SHT30;71522;50.870;3.524;2023-09-19T05:34:00;14.47;82.15
82001;SHT30;71522;50.870;3.524;2023-09-19T05:36:29;14.53;82.02
82001;SHT30;71522;50.870;3.524;2023-09-19T05:38:55;14.53;81.99
82001;SHT30;71522;50.870;3.524;2023-09-19T05:41:28;14.54;82.04
82001;SHT30;71522;50.870;3.524;2023-09-19T05:43:57;14.57;82.13
82001;SHT30;71522;50.870;3.524;2023-09-19T05:46:25;14.65;82.04
82001;SHT30;71522;50.870;3.524;2023-09-19T05:48:58;14.71;81.97
82001;SHT30;71522;50.870;3.524;2023-09-19T05:51:33;14.77;81.67
82001;SHT30;71522;50.870;3.524;2023-09-19T05:53:58;14.87;81.32
82001;SHT30;71522;50.870;3.524;2023-09-19T05:56:24;14.91;81.42
82001;SHT30;71522;50.870;3.524;2023-09-19T05:59:01;14.95;81.40
82001;SHT30;71522;50.870;3.524;2023-09-19T06:01:36;14.95;81.50
82001;SHT30;71522;50.870;3.524;2023-09-19T06:04:21;15.01;81.35
82001;SHT30;71522;50.870;3.524;2023-09-19T06:07:04;15.02;81.21
82001;SHT30;71522;50.870;3.524;2023-09-19T06:09:31;15.02;81.04
82001;SHT30;71522;50.870;3.524;2023-09-19T06:12:20;14.99;81.00
82001;SHT30;71522;50.870;3.524;2023-09-19T06:15:01;15.03;81.14
82001;SHT30;71522;50.870;3.524;2023-09-19T06:17:29;15.08;80.75
82001;SHT30;71522;50.870;3.524;2023-09-19T06:19:59;15.06;80.91
82001;SHT30;71522;50.870;3.524;2023-09-19T06:22:27;15.15;80.89
82001;SHT30;71522;50.870;3.524;2023-09-19T06:24:59;15.22;80.51
82001;SHT30;71522;50.870;3.524;2023-09-19T06:27:27;15.26;80.23
82001;SHT30;71522;50.870;3.524;2023-09-19T06:29:54;15.33;80.20
82001;SHT30;71522;50.870;3.524;2023-09-19T06:32:30;15.38;80.05
82001;SHT30;71522;50.870;3.524;2023-09-19T06:34:58;15.46;80.09
82001;SHT30;71522;50.870;3.524;2023-09-19T06:37:27;15.53;80.18
82001;SHT30;71522;50.870;3.524;2023-09-19T06:40:02;15.54;80.14
82001;SHT30;71522;50.870;3.524;2023-09-19T06:42:33;15.61;80.00
82001;SHT30;71522;50.870;3.524;2023-09-19T06:44:59;15.70;79.70
82001;SHT30;71522;50.870;3.524;2023-09-19T06:47:32;15.87;79.13
82001;SHT30;71522;50.870;3.524;2023-09-19T06:50:01;15.94;78.91
82001;SHT30;71522;50.870;3.524;2023-09-19T06:52:34;16.04;78.16
82001;SHT30;71522;50.870;3.524;2023-09-19T06:55:21;16.08;77.70
82001;SHT30;71522;50.870;3.524;2023-09-19T06:57:51;16.14;78.26
82001;SHT30;71522;50.870;3.524;2023-09-19T07:00:18;16.19;78.58
82001;SHT30;71522;50.870;3.524;2023-09-19T07:02:44;16.26;77.61
82001;SHT30;71522;50.870;3.524;2023-09-19T07:05:27;16.35;77.49
82001;SHT30;71522;50.870;3.524;2023-09-19T07:07:57;16.49;77.34
82001;SHT30;71522;50.870;3.524;2023-09-19T07:10:27;16.55;76.67
82001;SHT30;71522;50.870;3.524;2023-09-19T07:12:57;16.66;77.40
82001;SHT30;71522;50.870;3.524;2023-09-19T07:15:24;16.70;76.80
82001;SHT30;71522;50.870;3.524;2023-09-19T07:17:53;16.80;77.16
82001;SHT30;71522;50.870;3.524;2023-09-19T07:20:23;16.86;77.00
82001;SHT30;71522;50.870;3.524;2023-09-19T07:22:52;16.89;76.50
82001;SHT30;71522;50.870;3.524;2023-09-19T07:25:21;16.97;76.08
82001;SHT30;71522;50.870;3.524;2023-09-19T07:27:49;17.06;76.45
82001;SHT30;71522;50.870;3.524;2023-09-19T07:30:17;17.08;76.39
82001;SHT30;71522;50.870;3.524;2023-09-19T07:32:56;17.11;76.14
82001;SHT30;71522;50.870;3.524;2023-09-19T07:35:22;17.18;75.84
82001;SHT30;71522;50.870;3.524;2023-09-19T07:37:51;17.23;75.84
82001;SHT30;71522;50.870;3.524;2023-09-19T07:40:36;17.35;76.10
82001;SHT30;71522;50.870;3.524;2023-09-19T07:43:11;17.44;75.21
82001;SHT30;71522;50.870;3.524;2023-09-19T07:45:39;17.56;74.12
82001;SHT30;71522;50.870;3.524;2023-09-19T07:48:05;17.62;74.35
82001;SHT30;71522;50.870;3.524;2023-09-19T07:50:42;17.79;74.00
82001;SHT30;71522;50.870;3.524;2023-09-19T07:53:14;17.93;74.20
82001;SHT30;71522;50.870;3.524;2023-09-19T07:55:40;17.97;73.61
82001;SHT30;71522;50.870;3.524;2023-09-19T07:58:07;18.03;74.32
82001;SHT30;71522;50.870;3.524;2023-09-19T08:00:36;18.10;73.53
82001;SHT30;71522;50.870;3.524;2023-09-19T08:03:08;18.10;73.43
82001;SHT30;71522;50.870;3.524;2023-09-19T08:05:40;18.09;73.85
82001;SHT30;71522;50.870;3.524;2023-09-19T08:08:11;18.10;72.85
82001;SHT30;71522;50.870;3.524;2023-09-19T08:10:45;18.12;72.30
82001;SHT30;71522;50.870;3.524;2023-09-19T08:16:34;18.17;73.02
82001;SHT30;71522;50.870;3.524;2023-09-19T08:19:02;18.22;72.99
82001;SHT30;71522;50.870;3.524;2023-09-19T08:21:28;18.29;73.57
82001;SHT30;71522;50.870;3.524;2023-09-19T08:23:55;18.34;72.09
82001;SHT30;71522;50.870;3.524;2023-09-19T08:26:22;18.36;73.60
82001;SHT30;71522;50.870;3.524;2023-09-19T08:28:53;18.45;73.64
82001;SHT30;71522;50.870;3.524;2023-09-19T08:31:22;18.43;72.78
82001;SHT30;71522;50.870;3.524;2023-09-19T08:33:50;18.40;71.80
82001;SHT30;71522;50.870;3.524;2023-09-19T08:36:17;18.45;71.95
82001;SHT30;71522;50.870;3.524;2023-09-19T08:38:42;18.58;71.60
82001;SHT30;71522;50.870;3.524;2023-09-19T08:41:11;18.76;70.70
82001;SHT30;71522;50.870;3.524;2023-09-19T08:43:40;18.82;70.26
82001;SHT30;71522;50.870;3.524;2023-09-19T08:46:14;18.85;70.08
82001;SHT30;71522;50.870;3.524;2023-09-19T08:48:46;18.81;71.25
82001;SHT30;71522;50.870;3.524;2023-09-19T08:51:44;18.92;71.16
82001;SHT30;71522;50.870;3.524;2023-09-19T08:54:22;19.03;70.53
82001;SHT30;71522;50.870;3.524;2023-09-19T08:56:55;19.09;69.70
82001;SHT30;71522;50.870;3.524;2023-09-19T08:59:25;19.15;70.10
82001;SHT30;71522;50.870;3.524;2023-09-19T09:01:56;19.20;70.11
82001;SHT30;71522;50.870;3.524;2023-09-19T09:04:25;19.23;69.66
82001;SHT30;71522;50.870;3.524;2023-09-19T09:06:56;19.24;71.21
82001;SHT30;71522;50.870;3.524;2023-09-19T09:09:34;19.32;69.10
82001;SHT30;71522;50.870;3.524;2023-09-19T09:12:02;19.40;69.53
82001;SHT30;71522;50.870;3.524;2023-09-19T09:14:29;19.36;69.80
82001;SHT30;71522;50.870;3.524;2023-09-19T09:16:55;19.33;70.41
82001;SHT30;71522;50.870;3.524;2023-09-19T09:19:30;19.30;70.94
82001;SHT30;71522;50.870;3.524;2023-09-19T09:22:10;19.20;70.55
82001;SHT30;71522;50.870;3.524;2023-09-19T09:24:37;19.06;70.00
82001;SHT30;71522;50.870;3.524;2023-09-19T09:27:12;18.98;70.44
82001;SHT30;71522;50.870;3.524;2023-09-19T09:29:48;18.88;70.75
82001;SHT30;71522;50.870;3.524;2023-09-19T09:32:33;18.85;71.56
82001;SHT30;71522;50.870;3.524;2023-09-19T09:35:03;18.88;70.94
82001;SHT30;71522;50.870;3.524;2023-09-19T09:37:43;18.96;71.41
82001;SHT30;71522;50.870;3.524;2023-09-19T09:40:16;19.05;71.27
82001;SHT30;71522;50.870;3.524;2023-09-19T09:42:43;19.12;72.03
82001;SHT30;71522;50.870;3.524;2023-09-19T09:45:18;19.09;71.56
82001;SHT30;71522;50.870;3.524;2023-09-19T09:48:14;19.23;71.29
82001;SHT30;71522;50.870;3.524;2023-09-19T09:50:49;19.27;70.20
82001;SHT30;71522;50.870;3.524;2023-09-19T09:53:29;19.40;69.99
82001;SHT30;71522;50.870;3.524;2023-09-19T09:56:12;19.60;69.26
82001;SHT30;71522;50.870;3.524;2023-09-19T10:01:15;19.82;70.80
82001;SHT30;71522;50.870;3.524;2023-09-19T10:03:58;19.88;69.32
82001;SHT30;71522;50.870;3.524;2023-09-19T10:06:26;19.77;69.83
82001;SHT30;71522;50.870;3.524;2023-09-19T10:12:47;20.08;67.82
82001;SHT30;71522;50.870;3.524;2023-09-19T10:15:18;20.14;68.94
82001;SHT30;71522;50.870;3.524;2023-09-19T10:17:55;20.12;66.86
82001;SHT30;71522;50.870;3.524;2023-09-19T10:20:47;20.11;68.05
82001;SHT30;71522;50.870;3.524;2023-09-19T10:23:22;20.26;69.18
82001;SHT30;71522;50.870;3.524;2023-09-19T10:26:23;20.38;68.28
82001;SHT30;71522;50.870;3.524;2023-09-19T10:28:57;20.52;68.06
82001;SHT30;71522;50.870;3.524;2023-09-19T10:31:28;20.50;66.27
82001;SHT30;71522;50.870;3.524;2023-09-19T10:33:58;20.67;66.87
82001;SHT30;71522;50.870;3.524;2023-09-19T10:36:35;20.88;67.76
82001;SHT30;71522;50.870;3.524;2023-09-19T10:39:15;20.98;65.65
82001;SHT30;71522;50.870;3.524;2023-09-19T10:41:50;21.01;65.01
82001;SHT30;71522;50.870;3.524;2023-09-19T10:44:25;21.20;66.99
82001;SHT30;71522;50.870;3.524;2023-09-19T10:47:00;21.27;64.99
82001;SHT30;71522;50.870;3.524;2023-09-19T10:49:51;21.34;64.01
82001;SHT30;71522;50.870;3.524;2023-09-19T10:52:53;21.27;64.19
82001;SHT30;71522;50.870;3.524;2023-09-19T10:55:31;21.41;64.81
82001;SHT30;71522;50.870;3.524;2023-09-19T10:57:59;21.44;65.11
82001;SHT30;71522;50.870;3.524;2023-09-19T11:00:50;21.21;62.51
82001;SHT30;71522;50.870;3.524;2023-09-19T11:03:38;21.25;64.16
82001;SHT30;71522;50.870;3.524;2023-09-19T11:06:39;21.17;64.52
82001;SHT30;71522;50.870;3.524;2023-09-19T11:09:08;20.98;62.65
82001;SHT30;71522;50.870;3.524;2023-09-19T11:11:46;21.12;63.52
82001;SHT30;71522;50.870;3.524;2023-09-19T11:17:35;21.28;64.35
82001;SHT30;71522;50.870;3.524;2023-09-19T11:20:28;21.38;63.71
82001;SHT30;71522;50.870;3.524;2023-09-19T11:25:48;21.66;61.96
82001;SHT30;71522;50.870;3.524;2023-09-19T11:28:27;21.99;63.45
82001;SHT30;71522;50.870;3.524;2023-09-19T11:33:34;22.29;61.93
82001;SHT30;71522;50.870;3.524;2023-09-19T11:36:04;22.23;62.78
82001;SHT30;71522;50.870;3.524;2023-09-19T11:41:37;22.09;62.78
82001;SHT30;71522;50.870;3.524;2023-09-19T11:44:48;21.85;62.09
82001;SHT30;71522;50.870;3.524;2023-09-19T11:46:59;21.61;63.16
82001;SHT30;71522;50.870;3.524;2023-09-19T11:49:31;21.32;62.84
82001;SHT30;71522;50.870;3.524;2023-09-19T11:52:25;21.25;63.69
82001;SHT30;71522;50.870;3.524;2023-09-19T11:55:01;21.10;63.62
82001;SHT30;71522;50.870;3.524;2023-09-19T11:57:38;20.88;63.95
82001;SHT30;71522;50.870;3.524;2023-09-19T12:00:22;20.81;63.75
82001;SHT30;71522;50.870;3.524;2023-09-19T12:02:55;20.79;64.37
82001;SHT30;71522;50.870;3.524;2023-09-19T12:05:32;20.73;64.48
82001;SHT30;71522;50.870;3.524;2023-09-19T12:08:00;20.79;65.66
82001;SHT30;71522;50.870;3.524;2023-09-19T12:10:29;20.80;65.68
82001;SHT30;71522;50.870;3.524;2023-09-19T12:12:55;20.93;65.90
82001;SHT30;71522;50.870;3.524;2023-09-19T12:15:30;20.97;65.49
82001;SHT30;71522;50.870;3.524;2023-09-19T12:18:04;21.04;64.99
82001;SHT30;71522;50.870;3.524;2023-09-19T12:20:42;21.24;64.70
82001;SHT30;71522;50.870;3.524;2023-09-19T12:23:14;21.46;63.43
82001;SHT30;71522;50.870;3.524;2023-09-19T12:25:44;21.63;64.92
82001;SHT30;71522;50.870;3.524;2023-09-19T12:28:18;21.52;63.59
82001;SHT30;71522;50.870;3.524;2023-09-19T12:30:44;21.46;65.58
82001;SHT30;71522;50.870;3.524;2023-09-19T12:33:21;21.48;63.25
82001;SHT30;71522;50.870;3.524;2023-09-19T12:35:51;21.58;63.28
82001;SHT30;71522;50.870;3.524;2023-09-19T12:38:27;21.71;62.47
82001;SHT30;71522;50.870;3.524;2023-09-19T12:40:57;21.75;63.16
82001;SHT30;71522;50.870;3.524;2023-09-19T12:43:31;21.59;63.81
82001;SHT30;71522;50.870;3.524;2023-09-19T12:46:03;21.52;64.13
82001;SHT30;71522;50.870;3.524;2023-09-19T12:48:33;21.42;64.27
82001;SHT30;71522;50.870;3.524;2023-09-19T12:51:07;21.39;64.49
82001;SHT30;71522;50.870;3.524;2023-09-19T12:53:57;21.34;64.84
82001;SHT30;71522;50.870;3.524;2023-09-19T12:56:23;21.39;63.52
82001;SHT30;71522;50.870;3.524;2023-09-19T12:58:57;21.41;64.75
82001;SHT30;71522;50.870;3.524;2023-09-19T13:01:44;21.28;64.47
82001;SHT30;71522;50.870;3.524;2023-09-19T13:04:24;21.12;65.34
82001;SHT30;71522;50.870;3.524;2023-09-19T13:06:56;20.91;65.33
82001;SHT30;71522;50.870;3.524;2023-09-19T13:09:27;20.80;65.79
82001;SHT30;71522;50.870;3.524;2023-09-19T13:12:35;20.81;66.38
82001;SHT30;71522;50.870;3.524;2023-09-19T13:15:14;20.96;66.69
82001;SHT30;71522;50.870;3.524;2023-09-19T13:17:50;21.00;65.97
82001;SHT30;71522;50.870;3.524;2023-09-19T13:20:26;20.98;65.01
82001;SHT30;71522;50.870;3.524;2023-09-19T13:23:29;21.06;64.89
82001;SHT30;71522;50.870;3.524;2023-09-19T13:25:57;20.97;64.49
82001;SHT30;71522;50.870;3.524;2023-09-19T13:28:38;21.06;65.34
82001;SHT30;71522;50.870;3.524;2023-09-19T13:31:06;20.97;65.64
82001;SHT30;71522;50.870;3.524;2023-09-19T13:33:42;20.93;64.89
82001;SHT30;71522;50.870;3.524;2023-09-19T13:36:08;21.00;65.34
82001;SHT30;71522;50.870;3.524;2023-09-19T13:38:38;21.20;65.37
82001;SHT30;71522;50.870;3.524;2023-09-19T13:41:07;21.17;65.30
82001;SHT30;71522;50.870;3.524;2023-09-19T13:43:33;21.23;65.04
82001;SHT30;71522;50.870;3.524;2023-09-19T13:45:59;21.30;66.15
82001;SHT30;71522;50.870;3.524;2023-09-19T13:48:25;21.18;64.15
82001;SHT30;71522;50.870;3.524;2023-09-19T13:50:54;20.91;63.71
82001;SHT30;71522;50.870;3.524;2023-09-19T13:53:23;20.69;65.02
82001;SHT30;71522;50.870;3.524;2023-09-19T13:55:57;20.53;65.47
82001;SHT30;71522;50.870;3.524;2023-09-19T13:58:23;20.46;65.69
82001;SHT30;71522;50.870;3.524;2023-09-19T14:00:53;20.45;67.45
82001;SHT30;71522;50.870;3.524;2023-09-19T14:03:21;20.35;66.24
82001;SHT30;71522;50.870;3.524;2023-09-19T14:05:47;20.28;66.77
82001;SHT30;71522;50.870;3.524;2023-09-19T14:08:13;20.12;66.76
82001;SHT30;71522;50.870;3.524;2023-09-19T14:10:44;20.01;67.61
82001;SHT30;71522;50.870;3.524;2023-09-19T14:13:11;19.95;68.52
82001;SHT30;71522;50.870;3.524;2023-09-19T14:15:44;19.92;67.25
82001;SHT30;71522;50.870;3.524;2023-09-19T14:18:09;19.92;67.84
82001;SHT30;71522;50.870;3.524;2023-09-19T14:20:53;19.88;66.47
82001;SHT30;71522;50.870;3.524;2023-09-19T14:23:19;19.88;67.06
82001;SHT30;71522;50.870;3.524;2023-09-19T14:25:45;19.88;67.14
82001;SHT30;71522;50.870;3.524;2023-09-19T14:28:14;19.78;67.62
82001;SHT30;71522;50.870;3.524;2023-09-19T14:30:40;19.64;67.33
82001;SHT30;71522;50.870;3.524;2023-09-19T14:33:07;19.88;67.46
82001;SHT30;71522;50.870;3.524;2023-09-19T14:35:33;20.14;66.82
82001;SHT30;71522;50.870;3.524;2023-09-19T14:38:02;20.28;67.33
82001;SHT30;71522;50.870;3.524;2023-09-19T14:40:29;20.32;66.96
82001;SHT30;71522;50.870;3.524;2023-09-19T14:42:55;20.29;66.26
82001;SHT30;71522;50.870;3.524;2023-09-19T14:45:24;20.11;65.98
82001;SHT30;71522;50.870;3.524;2023-09-19T14:47:51;20.12;67.35
82001;SHT30;71522;50.870;3.524;2023-09-19T14:50:24;20.12;67.66
82001;SHT30;71522;50.870;3.524;2023-09-19T14:52:55;20.09;66.61
82001;SHT30;71522;50.870;3.524;2023-09-19T14:55:21;19.99;66.90
82001;SHT30;71522;50.870;3.524;2023-09-19T14:57:51;19.94;67.36
82001;SHT30;71522;50.870;3.524;2023-09-19T15:00:31;19.90;68.59
82001;SHT30;71522;50.870;3.524;2023-09-19T15:02:58;19.91;67.95
82001;SHT30;71522;50.870;3.524;2023-09-19T15:05:23;19.82;68.03
82001;SHT30;71522;50.870;3.524;2023-09-19T15:07:50;19.82;68.64
82001;SHT30;71522;50.870;3.524;2023-09-19T15:10:16;19.73;68.58
82001;SHT30;71522;50.870;3.524;2023-09-19T15:12:44;19.64;68.06
82001;SHT30;71522;50.870;3.524;2023-09-19T15:15:10;19.66;67.62
82001;SHT30;71522;50.870;3.524;2023-09-19T15:17:39;19.61;67.14
82001;SHT30;71522;50.870;3.524;2023-09-19T15:20:07;19.59;67.63
82001;SHT30;71522;50.870;3.524;2023-09-19T15:22:34;19.66;68.30
82001;SHT30;71522;50.870;3.524;2023-09-19T15:25:04;19.49;68.18
82001;SHT30;71522;50.870;3.524;2023-09-19T15:27:32;19.51;68.08
82001;SHT30;71522;50.870;3.524;2023-09-19T15:30:02;19.56;68.69
82001;SHT30;71522;50.870;3.524;2023-09-19T15:32:29;19.66;68.83
82001;SHT30;71522;50.870;3.524;2023-09-19T15:34:55;19.64;69.06
82001;SHT30;71522;50.870;3.524;2023-09-19T15:37:21;19.60;68.75
82001;SHT30;71522;50.870;3.524;2023-09-19T15:39:47;19.64;69.46
82001;SHT30;71522;50.870;3.524;2023-09-19T15:42:17;19.50;69.46
82001;SHT30;71522;50.870;3.524;2023-09-19T15:44:48;19.49;70.19
82001;SHT30;71522;50.870;3.524;2023-09-19T15:47:17;19.50;70.09
82001;SHT30;71522;50.870;3.524;2023-09-19T15:49:45;19.50;70.98
82001;SHT30;71522;50.870;3.524;2023-09-19T15:52:11;19.56;69.80
82001;SHT30;71522;50.870;3.524;2023-09-19T15:54:36;19.60;69.34
82001;SHT30;71522;50.870;3.524;2023-09-19T15:57:07;19.69;69.89
82001;SHT30;71522;50.870;3.524;2023-09-19T15:59:35;19.66;70.56
82001;SHT30;71522;50.870;3.524;2023-09-19T16:04:36;19.53;72.46
82001;SHT30;71522;50.870;3.524;2023-09-19T16:07:06;19.37;73.81
82001;SHT30;71522;50.870;3.524;2023-09-19T16:09:36;19.26;74.17
82001;SHT30;71522;50.870;3.524;2023-09-19T16:12:02;19.08;74.71
82001;SHT30;71522;50.870;3.524;2023-09-19T16:14:28;18.95;75.08
82001;SHT30;71522;50.870;3.524;2023-09-19T16:16:56;18.88;76.94
82001;SHT30;71522;50.870;3.524;2023-09-19T16:19:25;18.75;76.88
82001;SHT30;71522;50.870;3.524;2023-09-19T16:21:51;18.68;77.29
82001;SHT30;71522;50.870;3.524;2023-09-19T16:24:21;18.55;78.07
82001;SHT30;71522;50.870;3.524;2023-09-19T16:26:48;18.51;78.03
82001;SHT30;71522;50.870;3.524;2023-09-19T16:29:16;18.48;78.06
82001;SHT30;71522;50.870;3.524;2023-09-19T16:31:42;18.43;78.08
82001;SHT30;71522;50.870;3.524;2023-09-19T16:34:10;18.45;78.21